createdAt,value
2019-06-01T00:00:10.927Z,79.20
2019-06-01T00:02:31.240Z,79.40
2019-06-01T00:05:00.319Z,79.50
2019-06-01T00:07:29.383Z,79.50
2019-06-01T00:09:58.401Z,79.60
2019-06-01T00:12:27.437Z,79.70
2019-06-01T00:14:56.474Z,79.80
2019-06-01T00:17:25.456Z,80.00
2019-06-01T00:19:54.448Z,80.10
2019-06-01T00:22:23.476Z,80.20
2019-06-01T00:24:52.508Z,80.30
2019-06-01T00:27:21.541Z,80.30
2019-06-01T00:29:50.569Z,80.40
2019-06-01T00:32:19.543Z,80.50
2019-06-01T00:34:49.638Z,80.60
2019-06-01T00:37:18.942Z,80.80
2019-06-01T00:39:47.952Z,80.90
2019-06-01T00:42:17.022Z,81.10
2019-06-01T00:44:46.318Z,81.20
2019-06-01T00:47:15.315Z,81.70
2019-06-01T00:49:44.714Z,81.50
2019-06-01T00:52:13.752Z,81.60
2019-06-01T00:54:43.208Z,82.50
2019-06-01T00:57:12.463Z,81.90
2019-06-01T00:59:41.477Z,81.90
2019-06-01T01:02:10.469Z,82.00
2019-06-01T01:04:39.494Z,82.20
2019-06-01T01:07:08.528Z,82.30
2019-06-01T01:09:37.584Z,82.30
2019-06-01T01:12:06.702Z,82.50
2019-06-01T01:14:35.730Z,82.60
2019-06-01T01:17:05.169Z,82.70
2019-06-01T01:19:34.206Z,82.80
2019-06-01T01:22:03.271Z,82.90
2019-06-01T01:24:32.314Z,83.10
2019-06-01T01:27:01.398Z,83.20
2019-06-01T01:29:30.451Z,83.30
2019-06-01T01:31:59.517Z,83.40
2019-06-01T01:34:28.562Z,83.50
2019-06-01T01:36:58.079Z,83.70
2019-06-01T01:39:27.139Z,83.80
2019-06-01T01:41:56.344Z,83.90
2019-06-01T01:44:25.394Z,84.00
2019-06-01T01:46:54.872Z,84.30
2019-06-01T01:49:23.862Z,84.50
2019-06-01T01:51:52.938Z,84.60
2019-06-01T01:54:21.896Z,84.70
2019-06-01T01:56:52.005Z,84.80
2019-06-01T01:59:21.168Z,84.90
2019-06-01T02:01:50.436Z,85.00
2019-06-01T02:04:19.459Z,85.00
2019-06-01T02:06:48.601Z,85.10
2019-06-01T02:09:17.651Z,85.10
2019-06-01T02:11:46.765Z,85.20
2019-06-01T02:14:15.826Z,85.90
2019-06-01T02:16:44.928Z,85.30
2019-06-01T02:19:13.981Z,85.40
2019-06-01T02:21:42.991Z,85.40
2019-06-01T02:24:12.004Z,85.50
2019-06-01T02:26:42.160Z,85.50
2019-06-01T02:29:11.197Z,85.50
2019-06-01T02:31:42.705Z,85.50
2019-06-01T02:34:10.949Z,85.50
2019-06-01T02:36:39.932Z,85.60
2019-06-01T02:39:09.782Z,85.60
2019-06-01T02:41:38.847Z,85.70
2019-06-01T02:44:07.927Z,85.80
2019-06-01T02:46:36.986Z,85.80
2019-06-01T02:49:06.400Z,85.80
2019-06-01T02:51:35.591Z,85.90
2019-06-01T02:54:04.690Z,85.90
2019-06-01T02:56:33.707Z,86.00
2019-06-01T02:59:02.720Z,86.20
2019-06-01T03:01:34.448Z,86.30
2019-06-01T03:04:05.521Z,86.30
2019-06-01T03:06:34.573Z,86.30
2019-06-01T03:09:06.742Z,86.40
2019-06-01T03:11:36.556Z,86.60
2019-06-01T03:14:08.805Z,86.80
2019-06-01T03:16:41.363Z,86.90
2019-06-01T03:19:11.811Z,87.00
2019-06-01T03:21:41.113Z,87.80
2019-06-01T03:24:13.302Z,87.20
2019-06-01T03:26:46.498Z,87.30
2019-06-01T03:29:19.607Z,87.30
2019-06-01T03:31:48.732Z,87.40
2019-06-01T03:34:19.062Z,87.60
2019-06-01T03:36:48.060Z,87.60
2019-06-01T03:39:17.115Z,87.70
2019-06-01T03:41:46.262Z,87.60
2019-06-01T03:44:15.388Z,87.60
2019-06-01T03:46:44.516Z,87.70
2019-06-01T03:49:13.543Z,87.60
2019-06-01T03:51:42.582Z,87.60
2019-06-01T03:54:11.626Z,87.70
2019-06-01T03:56:40.629Z,87.70
2019-06-01T03:59:09.864Z,87.70
2019-06-01T04:01:40.029Z,87.60
2019-06-01T04:04:09.367Z,87.70
2019-06-01T04:06:38.555Z,87.60
2019-06-01T04:09:08.156Z,87.70
2019-06-01T04:11:37.207Z,87.70
2019-06-01T04:14:07.806Z,87.70
2019-06-01T04:16:36.891Z,87.80
2019-06-01T04:19:06.124Z,87.80
2019-06-01T04:21:35.403Z,87.90
2019-06-01T04:24:04.450Z,88.00
2019-06-01T04:26:33.614Z,88.00
2019-06-01T04:29:02.696Z,88.20
2019-06-01T04:31:31.768Z,88.10
2019-06-01T04:34:00.784Z,88.10
2019-06-01T04:36:29.922Z,88.30
2019-06-01T04:38:58.989Z,88.30
2019-06-01T04:41:28.129Z,88.30
2019-06-01T04:43:57.199Z,88.40
2019-06-01T04:46:26.231Z,88.50
2019-06-01T04:48:55.258Z,88.60
2019-06-01T04:51:24.258Z,88.80
2019-06-01T04:53:53.310Z,88.90
2019-06-01T04:56:22.321Z,89.00
2019-06-01T04:58:51.425Z,89.10
2019-06-01T05:01:20.468Z,89.20
2019-06-01T05:03:49.583Z,89.40
2019-06-01T05:06:18.726Z,89.50
2019-06-01T05:08:47.868Z,89.50
2019-06-01T05:11:16.941Z,89.60
2019-06-01T05:13:45.979Z,89.70
2019-06-01T05:16:16.474Z,89.80
2019-06-01T05:18:45.704Z,89.90
2019-06-01T05:21:15.253Z,90.10
2019-06-01T05:23:44.600Z,89.90
2019-06-01T05:26:14.987Z,89.90
2019-06-01T05:28:44.080Z,89.90
2019-06-01T05:31:20.460Z,90.00
2019-06-01T05:33:43.876Z,89.90
2019-06-01T05:36:14.133Z,90.00
2019-06-01T05:38:43.344Z,90.00
2019-06-01T05:41:13.313Z,90.00
2019-06-01T05:43:42.642Z,90.00
2019-06-01T05:46:11.867Z,90.00
2019-06-01T05:48:40.946Z,90.00
2019-06-01T05:51:12.755Z,90.00
2019-06-01T05:53:40.712Z,90.00
2019-06-01T05:56:10.533Z,90.00
2019-06-01T05:58:39.551Z,90.00
2019-06-01T06:01:08.649Z,90.00
2019-06-01T06:03:40.536Z,90.00
2019-06-01T06:06:08.443Z,89.90
2019-06-01T06:08:37.424Z,89.90
2019-06-01T06:11:06.510Z,89.70
2019-06-01T06:13:35.549Z,89.60
2019-06-01T06:16:04.667Z,89.50
2019-06-01T06:18:33.715Z,89.30
2019-06-01T06:21:02.715Z,89.10
2019-06-01T06:23:31.731Z,88.70
2019-06-01T06:26:00.785Z,88.50
2019-06-01T06:28:29.851Z,88.20
2019-06-01T06:30:58.906Z,87.90
2019-06-01T06:33:27.932Z,87.70
2019-06-01T06:35:57.074Z,87.50
2019-06-01T06:38:26.086Z,87.30
2019-06-01T06:40:55.166Z,87.20
2019-06-01T06:43:31.058Z,87.00
2019-06-01T06:46:14.526Z,86.90
2019-06-01T06:48:43.631Z,86.60
2019-06-01T06:51:12.621Z,86.30
2019-06-01T06:53:41.591Z,86.00
2019-06-01T06:56:10.603Z,85.80
2019-06-01T06:58:39.633Z,85.50
2019-06-01T07:01:11.953Z,85.20
2019-06-01T07:03:39.451Z,84.90
2019-06-01T07:06:08.539Z,84.60
2019-06-01T07:08:37.830Z,84.30
2019-06-01T07:11:06.842Z,84.00
2019-06-01T07:13:35.818Z,83.70
2019-06-01T07:16:04.842Z,83.40
2019-06-01T07:18:33.906Z,83.00
2019-06-01T07:21:03.075Z,82.70
2019-06-01T07:23:32.262Z,82.50
2019-06-01T07:26:01.265Z,82.00
2019-06-01T07:28:30.255Z,81.80
2019-06-01T07:30:59.277Z,81.60
2019-06-01T07:33:28.618Z,81.00
2019-06-01T07:35:57.661Z,80.50
2019-06-01T07:38:26.860Z,80.20
2019-06-01T07:40:56.067Z,79.70
2019-06-01T07:43:25.149Z,79.40
2019-06-01T07:45:54.253Z,78.90
2019-06-01T07:48:23.271Z,78.40
2019-06-01T07:50:52.337Z,77.90
2019-06-01T07:53:21.467Z,77.30
2019-06-01T07:55:50.505Z,76.50
2019-06-01T07:58:20.678Z,75.80
2019-06-01T08:00:49.856Z,75.20
2019-06-01T08:03:18.905Z,74.50
2019-06-01T08:05:47.929Z,73.80
2019-06-01T08:08:16.930Z,73.00
2019-06-01T08:10:46.036Z,72.20
2019-06-01T08:13:15.100Z,71.10
2019-06-01T08:15:44.280Z,69.50
2019-06-01T08:18:13.320Z,67.10
2019-06-01T08:20:42.495Z,64.80
2019-06-01T08:23:11.551Z,61.70
2019-06-01T08:25:40.597Z,59.10
2019-06-01T08:28:09.629Z,57.10
2019-06-01T08:30:38.753Z,55.20
2019-06-01T08:33:07.794Z,53.60
2019-06-01T08:35:36.857Z,52.00
2019-06-01T08:38:05.913Z,50.70
2019-06-01T08:40:35.018Z,49.40
2019-06-01T08:43:04.092Z,48.10
2019-06-01T08:45:37.232Z,47.30
2019-06-01T08:48:04.111Z,46.20
2019-06-01T08:50:34.052Z,45.30
2019-06-01T08:53:03.572Z,44.40
2019-06-01T08:55:32.700Z,43.70
2019-06-01T08:58:01.756Z,43.10
2019-06-01T09:00:30.874Z,42.50
2019-06-01T09:02:59.865Z,42.10
2019-06-01T09:05:30.335Z,41.80
2019-06-01T09:07:59.766Z,41.60
2019-06-01T09:10:29.213Z,41.70
2019-06-01T09:12:58.299Z,41.60
2019-06-01T09:15:27.610Z,41.60
2019-06-01T09:17:56.737Z,42.00
2019-06-01T09:20:25.798Z,42.40
2019-06-01T09:22:54.895Z,42.90
2019-06-01T09:25:25.530Z,43.30
2019-06-01T09:27:54.614Z,43.50
2019-06-01T09:30:23.997Z,43.70
2019-06-01T09:32:53.044Z,44.00
2019-06-01T09:35:22.131Z,44.20
2019-06-01T09:37:51.143Z,44.60
2019-06-01T09:40:20.154Z,45.00
2019-06-01T09:42:49.227Z,45.30
2019-06-01T09:45:18.254Z,45.40
2019-06-01T09:47:47.595Z,45.60
2019-06-01T09:50:16.611Z,45.80
2019-06-01T09:52:45.648Z,45.80
2019-06-01T09:55:15.174Z,45.90
2019-06-01T09:57:45.736Z,45.90
2019-06-01T10:00:15.059Z,46.70
2019-06-01T10:02:44.065Z,46.20
2019-06-01T10:05:13.464Z,46.60
2019-06-01T10:07:42.494Z,46.70
2019-06-01T10:10:11.646Z,46.80
2019-06-01T10:12:40.715Z,47.00
2019-06-01T10:15:09.786Z,46.80
2019-06-01T10:17:39.155Z,46.50
2019-06-01T10:20:08.217Z,46.40
2019-06-01T10:22:37.308Z,46.60
2019-06-01T10:25:06.553Z,46.50
2019-06-01T10:27:36.766Z,46.30
2019-06-01T10:30:06.077Z,46.20
2019-06-01T10:32:35.698Z,45.80
2019-06-01T10:35:05.311Z,45.90
2019-06-01T10:37:35.386Z,46.20
2019-06-01T10:40:04.691Z,46.40
2019-06-01T10:42:34.442Z,46.60
2019-06-01T10:45:04.760Z,46.80
2019-06-01T10:47:33.938Z,47.10
2019-06-01T10:50:03.007Z,47.30
2019-06-01T10:52:32.126Z,47.40
2019-06-01T10:55:01.225Z,47.20
2019-06-01T10:57:30.322Z,47.40
2019-06-01T10:59:59.357Z,47.80
2019-06-01T11:02:28.447Z,48.00
2019-06-01T11:04:57.539Z,48.00
2019-06-01T11:07:26.719Z,47.70
2019-06-01T11:09:55.780Z,47.80
2019-06-01T11:12:24.847Z,47.60
2019-06-01T11:14:53.855Z,47.40
2019-06-01T11:17:22.926Z,47.30
2019-06-01T11:19:52.047Z,47.30
2019-06-01T11:22:21.109Z,47.00
2019-06-01T11:24:50.134Z,46.60
2019-06-01T11:27:19.170Z,46.40
2019-06-01T11:29:51.451Z,46.40
2019-06-01T11:32:18.967Z,46.50
2019-06-01T11:34:47.967Z,46.60
2019-06-01T11:37:17.050Z,46.50
2019-06-01T11:39:46.075Z,46.60
2019-06-01T11:42:15.092Z,47.40
2019-06-01T11:44:44.918Z,46.60
2019-06-01T11:47:13.977Z,46.50
2019-06-01T11:49:42.956Z,46.30
2019-06-01T11:52:12.064Z,46.20
2019-06-01T11:54:41.264Z,46.10
2019-06-01T11:57:10.409Z,45.80
2019-06-01T11:59:39.485Z,45.80
2019-06-01T12:02:08.626Z,45.80
2019-06-01T12:04:37.891Z,45.80
2019-06-01T12:07:16.827Z,45.70
2019-06-01T12:09:37.788Z,45.50
2019-06-01T12:12:06.898Z,45.20
2019-06-01T12:14:36.305Z,45.00
2019-06-01T12:17:05.566Z,45.20
2019-06-01T12:19:34.528Z,45.30
2019-06-01T12:22:03.617Z,45.20
2019-06-01T12:24:32.638Z,45.10
2019-06-01T12:27:01.691Z,45.30
2019-06-01T12:29:30.740Z,45.80
2019-06-01T12:31:59.880Z,46.40
2019-06-01T12:34:28.915Z,46.50
2019-06-01T12:36:57.986Z,46.50
2019-06-01T12:39:27.109Z,46.70
2019-06-01T12:41:56.166Z,46.90
2019-06-01T12:44:25.213Z,47.00
2019-06-01T12:46:54.270Z,46.80
2019-06-01T12:49:23.415Z,46.80
2019-06-01T12:51:53.028Z,46.70
2019-06-01T12:54:22.218Z,46.70
2019-06-01T12:56:51.207Z,46.50
2019-06-01T12:59:20.230Z,46.40
2019-06-01T13:01:49.384Z,46.50
2019-06-01T13:04:18.392Z,46.70
2019-06-01T13:06:51.157Z,46.70
2019-06-01T13:09:18.261Z,46.50
2019-06-01T13:11:47.486Z,46.40
2019-06-01T13:14:16.597Z,46.30
2019-06-01T13:16:52.882Z,46.30
2019-06-01T13:19:25.896Z,46.20
2019-06-01T13:21:54.939Z,46.10
2019-06-01T13:24:24.064Z,46.00
2019-06-01T13:26:53.137Z,46.00
2019-06-01T13:29:22.201Z,45.80
2019-06-01T13:31:52.610Z,45.70
2019-06-01T13:34:21.933Z,45.60
2019-06-01T13:36:51.026Z,45.60
2019-06-01T13:39:20.082Z,45.70
2019-06-01T13:41:49.611Z,45.70
2019-06-01T13:44:18.748Z,45.70
2019-06-01T13:46:47.866Z,45.80
2019-06-01T13:49:16.927Z,45.50
2019-06-01T13:51:46.088Z,45.30
2019-06-01T13:54:15.114Z,45.40
2019-06-01T13:56:44.736Z,45.50
2019-06-01T13:59:13.859Z,45.40
2019-06-01T14:01:42.893Z,45.30
2019-06-01T14:04:12.010Z,45.30
2019-06-01T14:06:41.037Z,45.30
2019-06-01T14:09:11.615Z,45.10
2019-06-01T14:11:40.638Z,44.90
2019-06-01T14:14:09.667Z,44.70
2019-06-01T14:16:38.769Z,44.80
2019-06-01T14:19:07.911Z,44.70
2019-06-01T14:21:36.979Z,44.70
2019-06-01T14:24:06.008Z,44.60
2019-06-01T14:26:35.185Z,44.50
2019-06-01T14:29:04.363Z,44.60
2019-06-01T14:31:33.442Z,44.90
2019-06-01T14:34:02.518Z,44.70
2019-06-01T14:36:31.562Z,44.60
2019-06-01T14:39:00.778Z,44.60
2019-06-01T14:41:29.868Z,44.60
2019-06-01T14:43:58.939Z,44.50
2019-06-01T14:46:28.009Z,44.30
2019-06-01T14:48:57.760Z,44.30
2019-06-01T14:51:26.897Z,44.40
2019-06-01T14:53:56.057Z,44.40
2019-06-01T14:56:25.083Z,44.20
2019-06-01T14:58:54.114Z,44.30
2019-06-01T15:01:32.590Z,44.20
2019-06-01T15:03:54.492Z,44.20
2019-06-01T15:06:28.701Z,44.10
2019-06-01T15:09:15.782Z,44.10
2019-06-01T15:11:28.692Z,44.10
2019-06-01T15:13:58.593Z,44.00
2019-06-01T15:16:27.768Z,43.90
2019-06-01T15:18:57.693Z,43.90
2019-06-01T15:21:26.787Z,43.90
2019-06-01T15:23:56.687Z,43.70
2019-06-01T15:26:25.901Z,43.50
2019-06-01T15:28:54.953Z,43.50
2019-06-01T15:31:24.099Z,43.40
2019-06-01T15:33:53.348Z,43.10
2019-06-01T15:36:22.423Z,43.00
2019-06-01T15:38:51.696Z,43.00
2019-06-01T15:41:20.747Z,43.10
2019-06-01T15:43:50.837Z,43.30
2019-06-01T15:46:19.927Z,43.40
2019-06-01T15:48:48.988Z,43.40
2019-06-01T15:51:18.047Z,43.30
2019-06-01T15:53:47.111Z,43.40
2019-06-01T15:56:16.275Z,43.40
2019-06-01T15:58:52.764Z,43.50
2019-06-01T16:01:16.142Z,43.70
2019-06-01T16:03:45.219Z,43.80
2019-06-01T16:06:14.394Z,43.80
2019-06-01T16:08:43.462Z,43.70
2019-06-01T16:11:12.458Z,43.60
2019-06-01T16:13:41.493Z,43.50
2019-06-01T16:16:10.611Z,43.50
2019-06-01T16:18:39.700Z,43.50
2019-06-01T16:21:08.808Z,43.30
2019-06-01T16:23:49.318Z,43.20
2019-06-01T16:26:15.624Z,42.90
2019-06-01T16:28:39.311Z,42.80
2019-06-01T16:31:08.495Z,42.70
2019-06-01T16:33:37.567Z,42.30
2019-06-01T16:36:06.654Z,41.90
2019-06-01T16:38:35.734Z,41.90
2019-06-01T16:41:05.566Z,42.00
2019-06-01T16:43:34.647Z,41.90
2019-06-01T16:46:03.899Z,42.00
2019-06-01T16:48:32.977Z,42.00
2019-06-01T16:51:02.592Z,41.80
2019-06-01T16:53:32.102Z,41.50
2019-06-01T16:56:02.001Z,41.40
2019-06-01T16:58:31.161Z,41.30
2019-06-01T17:01:00.484Z,41.60
2019-06-01T17:03:29.619Z,41.40
2019-06-01T17:05:58.669Z,41.60
2019-06-01T17:08:27.752Z,41.60
2019-06-01T17:10:56.803Z,41.90
2019-06-01T17:13:25.928Z,42.30
2019-06-01T17:15:55.012Z,42.50
2019-06-01T17:18:24.085Z,42.70
2019-06-01T17:20:53.918Z,42.70
2019-06-01T17:23:27.474Z,42.90
2019-06-01T17:25:53.720Z,42.90
2019-06-01T17:28:23.000Z,43.00
2019-06-01T17:30:52.212Z,43.30
2019-06-01T17:33:21.223Z,43.50
2019-06-01T17:35:50.243Z,43.80
2019-06-01T17:38:19.421Z,43.90
2019-06-01T17:40:48.541Z,44.00
2019-06-01T17:43:17.600Z,44.20
2019-06-01T17:45:46.695Z,44.50
2019-06-01T17:48:25.651Z,44.70
2019-06-01T17:50:46.474Z,44.80
2019-06-01T17:53:15.499Z,45.10
2019-06-01T17:55:44.662Z,45.50
2019-06-01T17:58:14.344Z,45.70
2019-06-01T18:00:43.814Z,46.00
2019-06-01T18:03:13.206Z,46.20
2019-06-01T18:05:42.297Z,46.40
2019-06-01T18:08:12.680Z,46.80
2019-06-01T18:10:53.348Z,46.90
2019-06-01T18:13:13.067Z,46.90
2019-06-01T18:15:42.197Z,47.10
2019-06-01T18:18:12.649Z,47.00
2019-06-01T18:21:02.246Z,46.90
2019-06-01T18:23:31.837Z,46.80
2019-06-01T18:26:04.992Z,46.80
2019-06-01T18:28:34.169Z,46.90
2019-06-01T18:31:04.479Z,47.00
2019-06-01T18:33:33.667Z,47.20
2019-06-01T18:36:03.436Z,47.50
2019-06-01T18:38:32.653Z,47.90
2019-06-01T18:41:12.780Z,48.40
2019-06-01T18:43:32.454Z,49.00
2019-06-01T18:46:01.949Z,49.60
2019-06-01T18:48:31.031Z,50.20
2019-06-01T18:51:00.178Z,50.60
2019-06-01T18:53:29.262Z,50.90
2019-06-01T18:55:58.442Z,51.20
2019-06-01T18:58:27.550Z,51.80
2019-06-01T19:00:56.601Z,52.30
2019-06-01T19:03:25.992Z,52.90
2019-06-01T19:05:55.032Z,53.70
2019-06-01T19:08:24.067Z,54.30
2019-06-01T19:10:53.164Z,54.80
2019-06-01T19:13:22.288Z,55.20
2019-06-01T19:15:54.117Z,55.50
2019-06-01T19:18:29.713Z,55.70
2019-06-01T19:20:58.684Z,55.90
2019-06-01T19:23:27.777Z,56.10
2019-06-01T19:25:58.437Z,56.40
2019-06-01T19:28:27.504Z,56.60
2019-06-01T19:30:56.541Z,56.90
2019-06-01T19:33:25.555Z,57.00
2019-06-01T19:35:54.671Z,57.30
2019-06-01T19:38:23.770Z,57.50
2019-06-01T19:40:52.859Z,57.90
2019-06-01T19:43:22.010Z,58.20
2019-06-01T19:45:51.059Z,58.50
2019-06-01T19:48:20.077Z,58.80
2019-06-01T19:50:49.226Z,58.90
2019-06-01T19:53:18.889Z,59.20
2019-06-01T19:55:48.014Z,59.40
2019-06-01T19:58:18.739Z,59.70
2019-06-01T20:00:47.688Z,60.00
2019-06-01T20:03:21.498Z,60.40
2019-06-01T20:05:47.565Z,60.80
2019-06-01T20:08:18.056Z,61.20
2019-06-01T20:10:47.165Z,61.70
2019-06-01T20:13:17.296Z,62.20
2019-06-01T20:15:46.364Z,62.50
2019-06-01T20:18:16.914Z,62.90
2019-06-01T20:20:46.052Z,63.40
2019-06-01T20:23:15.396Z,63.90
2019-06-01T20:25:44.399Z,64.30
2019-06-01T20:28:13.591Z,64.70
2019-06-01T20:30:42.770Z,65.20
2019-06-01T20:33:11.988Z,65.60
2019-06-01T20:35:40.968Z,65.90
2019-06-01T20:38:10.029Z,66.40
2019-06-01T20:40:39.112Z,66.80
2019-06-01T20:43:09.332Z,67.10
2019-06-01T20:45:38.416Z,67.40
2019-06-01T20:48:07.625Z,67.80
2019-06-01T20:50:36.661Z,68.10
2019-06-01T20:53:05.712Z,68.40
2019-06-01T20:55:34.723Z,68.70
2019-06-01T20:58:03.727Z,69.00
2019-06-01T21:00:32.770Z,69.20
2019-06-01T21:03:01.881Z,69.40
2019-06-01T21:05:30.922Z,69.70
2019-06-01T21:07:59.998Z,69.90
2019-06-01T21:10:29.082Z,70.10
2019-06-01T21:12:58.182Z,70.40
2019-06-01T21:15:27.212Z,70.50
2019-06-01T21:17:57.272Z,70.80
2019-06-01T21:20:29.997Z,71.00
2019-06-01T21:22:57.754Z,71.10
2019-06-01T21:25:26.829Z,71.30
2019-06-01T21:27:55.945Z,71.40
2019-06-01T21:30:25.894Z,71.50
2019-06-01T21:32:55.014Z,71.60
2019-06-01T21:35:25.478Z,71.80
2019-06-01T21:37:54.666Z,71.80
2019-06-01T21:40:23.745Z,72.00
2019-06-01T21:43:06.874Z,71.90
2019-06-01T21:45:23.718Z,72.00
2019-06-01T21:47:52.835Z,72.10
2019-06-01T21:50:22.180Z,72.20
2019-06-01T21:52:51.287Z,72.30
2019-06-01T21:55:20.461Z,72.40
2019-06-01T21:57:49.688Z,72.50
2019-06-01T22:00:27.847Z,72.60
2019-06-01T22:02:56.930Z,72.80
2019-06-01T22:05:27.403Z,72.80
2019-06-01T22:07:56.493Z,72.90
2019-06-01T22:10:25.713Z,73.00
2019-06-01T22:12:54.932Z,73.10
2019-06-01T22:15:23.939Z,73.10
2019-06-01T22:17:52.960Z,73.20
2019-06-01T22:20:22.127Z,73.20
2019-06-01T22:22:51.189Z,74.10
2019-06-01T22:25:20.936Z,73.50
2019-06-01T22:27:51.051Z,73.50
2019-06-01T22:30:20.364Z,73.60
2019-06-01T22:32:49.496Z,73.70
2019-06-01T22:35:18.775Z,73.70
2019-06-01T22:37:47.801Z,73.80
2019-06-01T22:40:16.811Z,73.80
2019-06-01T22:42:45.850Z,73.90
2019-06-01T22:45:14.914Z,74.00
2019-06-01T22:47:43.957Z,74.10
2019-06-01T22:50:12.983Z,74.20
2019-06-01T22:52:42.054Z,74.40
2019-06-01T22:55:11.134Z,74.50
2019-06-01T22:57:43.175Z,74.50
2019-06-01T23:00:10.919Z,74.60
2019-06-01T23:02:40.013Z,74.70
2019-06-01T23:05:09.092Z,74.70
2019-06-01T23:07:38.134Z,74.90
2019-06-01T23:10:08.826Z,74.90
2019-06-01T23:12:37.887Z,75.00
2019-06-01T23:15:08.155Z,75.00
2019-06-01T23:17:37.176Z,75.10
2019-06-01T23:20:06.450Z,75.00
2019-06-01T23:22:35.523Z,75.10
2019-06-01T23:25:04.570Z,75.00
2019-06-01T23:27:33.589Z,74.90
2019-06-01T23:30:02.636Z,74.90
2019-06-01T23:32:32.722Z,74.80
2019-06-01T23:35:01.850Z,74.70
2019-06-01T23:37:31.010Z,74.60
2019-06-01T23:40:00.086Z,74.60
2019-06-01T23:42:29.090Z,74.70
2019-06-01T23:44:58.143Z,74.70
2019-06-01T23:47:27.448Z,74.80
2019-06-01T23:49:56.518Z,74.70
2019-06-01T23:52:25.570Z,74.80
2019-06-01T23:54:54.620Z,74.80
2019-06-01T23:57:23.816Z,74.70
2019-06-01T23:59:52.965Z,74.70
